TimeCST,TemperatureF,Dew PointF,Humidity,Sea Level PressureIn,VisibilityMPH,Wind Direction,Wind SpeedMPH,Gust SpeedMPH,PrecipitationIn,Events,Conditions,WindDirDegrees,DateUTC
12:58 AM,60.4,33.8,37,29.87,10.0,South,16.1,-,0.00,Rain,Light Rain,190,2014-02-16 06:58:00
1:21 AM,60.8,35.6,39,29.96,10.0,South,15.0,-,N/A,,Clear,180,2014-02-16 07:21:00
1:58 AM,57.7,35.2,43,29.88,10.0,South,16.1,-,0.00,Rain,Light Rain,190,2014-02-16 07:58:00
2:43 AM,53.6,33.8,47,29.98,10.0,NW,5.8,-,N/A,,Clear,310,2014-02-16 08:43:00
2:58 AM,52.5,34.0,49,29.91,10.0,NNW,4.6,-,0.00,Rain,Light Rain,330,2014-02-16 08:58:00
3:58 AM,45.9,32.0,58,29.90,10.0,SSW,3.5,-,0.00,Rain,Light Rain,210,2014-02-16 09:58:00
4:58 AM,43.9,31.6,62,29.91,10.0,WNW,3.5,-,0.00,Rain,Light Rain,290,2014-02-16 10:58:00
5:58 AM,38.8,30.7,73,29.92,10.0,SW,4.6,-,0.00,Rain,Light Rain,230,2014-02-16 11:58:00
6:18 AM,39.2,32.0,75,29.97,10.0,SSW,3.5,-,N/A,,Clear,210,2014-02-16 12:18:00
6:58 AM,43.3,32.0,64,29.95,10.0,West,5.8,-,0.00,Rain,Light Rain,270,2014-02-16 12:58:00
7:58 AM,44.4,32.5,63,29.96,10.0,WNW,4.6,-,0.00,,Light Drizzle,290,2014-02-16 13:58:00
8:58 AM,48.0,33.6,57,29.96,10.0,WNW,5.8,-,0.00,Rain,Light Rain,290,2014-02-16 14:58:00
9:58 AM,54.7,35.1,48,29.96,10.0,Variable,3.5,-,0.00,Rain,Light Rain,0,2014-02-16 15:58:00
10:18 AM,57.2,35.6,44,30.00,10.0,Calm,Calm,-,N/A,,Clear,0,2014-02-16 16:18:00
10:58 AM,62.8,39.4,42,29.92,10.0,Variable,2.3,-,0.00,Rain,Light Rain,0,2014-02-16 16:58:00
11:57 AM,69.8,44.6,40,29.97,10.0,SSW,10.4,-,N/A,,Clear,210,2014-02-16 17:57:00
11:58 AM,69.8,44.6,40,29.89,10.0,SSW,11.5,-,0.00,,Clear,210,2014-02-16 17:58:00
12:58 PM,75.4,45.0,34,29.84,10.0,SSW,8.1,-,0.00,,Light Drizzle,210,2014-02-16 18:58:00
1:58 PM,77.9,44.6,31,29.81,10.0,SW,10.4,18.4,0.00,,Light Drizzle,220,2014-02-16 19:58:00
2:58 PM,80.4,43.9,27,29.79,10.0,SSW,11.5,-,0.00,Rain,Light Rain,210,2014-02-16 20:58:00
3:58 PM,81.7,43.5,26,29.77,10.0,SSW,15.0,-,0.00,Rain,Light Rain,210,2014-02-16 21:58:00
4:58 PM,82.0,44.4,27,29.77,10.0,SSW,12.7,-,0.00,Rain,Light Rain,210,2014-02-16 22:58:00
5:08 PM,82.4,44.6,26,29.85,10.0,SSW,10.4,-,N/A,,Clear,200,2014-02-16 23:08:00
5:58 PM,78.1,48.9,36,29.79,10.0,South,10.4,-,0.00,,Clear,190,2014-02-16 23:58:00
6:58 PM,63.5,47.3,56,29.83,10.0,South,6.9,-,N/A,,Clear,180,2014-02-17 00:58:00
7:58 PM,62.1,47.5,59,29.83,10.0,SW,6.9,-,N/A,,Clear,220,2014-02-17 01:58:00
8:58 PM,56.1,45.3,67,29.85,10.0,SSW,4.6,-,N/A,,Clear,210,2014-02-17 02:58:00
9:58 PM,54.0,44.2,70,29.84,10.0,South,11.5,-,N/A,,Clear,180,2014-02-17 03:58:00
10:58 PM,53.8,41.9,64,29.83,10.0,SSW,8.1,-,N/A,,Clear,210,2014-02-17 04:58:00
11:58 PM,66.7,45.5,46,29.78,10.0,SSW,18.4,-,N/A,,Clear,210,2014-02-17 05:58:00